createdAt,value
2023-03-26T00:00:14.401Z,94844.59
2023-03-26T00:02:41.194Z,94852.19
2023-03-26T00:05:08.776Z,94849.84
2023-03-26T00:07:35.399Z,94842.50
2023-03-26T00:10:02.073Z,94844.47
2023-03-26T00:12:28.809Z,94847.09
2023-03-26T00:14:56.549Z,94853.19
2023-03-26T00:17:23.968Z,94852.50
2023-03-26T00:19:50.577Z,94863.19
2023-03-26T00:22:17.179Z,94859.88
2023-03-26T00:24:43.806Z,94851.59
2023-03-26T00:27:10.523Z,94851.25
2023-03-26T00:29:37.204Z,94843.44
2023-03-26T00:32:03.951Z,94839.97
2023-03-26T00:34:30.562Z,94846.09
2023-03-26T00:36:57.227Z,94854.25
2023-03-26T00:39:23.927Z,94858.72
2023-03-26T00:41:50.696Z,94884.22
2023-03-26T00:44:17.323Z,94877.34
2023-03-26T00:46:43.977Z,94865.91
2023-03-26T00:49:10.989Z,94859.75
2023-03-26T00:51:38.092Z,94851.03
2023-03-26T00:54:04.695Z,94846.16
2023-03-26T00:56:31.338Z,94842.72
2023-03-26T00:58:57.987Z,94843.00
2023-03-26T01:01:27.038Z,94840.19
2023-03-26T01:04:08.263Z,94857.22
2023-03-26T01:06:39.800Z,94852.88
2023-03-26T01:09:18.978Z,94825.28
2023-03-26T01:11:46.292Z,94827.22
2023-03-26T01:14:23.310Z,94822.16
2023-03-26T01:16:56.289Z,94822.25
2023-03-26T01:19:37.248Z,94800.94
2023-03-26T01:22:06.813Z,94799.09
2023-03-26T01:24:33.492Z,94784.00
2023-03-26T01:27:03.060Z,94769.88
2023-03-26T01:29:44.768Z,94743.91
2023-03-26T01:32:20.697Z,94755.16
2023-03-26T01:35:06.656Z,94753.00
2023-03-26T01:37:57.562Z,94746.34
2023-03-26T01:40:51.559Z,94747.34
2023-03-26T01:43:29.505Z,94757.53
2023-03-26T01:46:01.260Z,94752.50
2023-03-26T01:48:36.342Z,94745.81
2023-03-26T01:51:04.374Z,94752.28
2023-03-26T01:53:33.752Z,94742.22
2023-03-26T01:56:08.712Z,94725.84
2023-03-26T01:59:00.220Z,94710.03
2023-03-26T02:01:59.134Z,94703.31
2023-03-26T02:04:43.826Z,94701.56
2023-03-26T02:07:21.569Z,94693.72
2023-03-26T02:09:56.172Z,94702.22
2023-03-26T02:12:24.534Z,94705.53
2023-03-26T02:14:51.580Z,94696.56
2023-03-26T02:17:18.224Z,94693.00
2023-03-26T02:19:45.131Z,94687.91
2023-03-26T02:22:12.747Z,94703.47
2023-03-26T02:24:39.426Z,94697.47
2023-03-26T02:27:06.198Z,94694.47
2023-03-26T02:29:35.849Z,94689.06
2023-03-26T02:32:02.561Z,94684.03
2023-03-26T02:34:29.215Z,94675.44
2023-03-26T02:36:55.803Z,94673.16
2023-03-26T02:39:22.771Z,94664.09
2023-03-26T02:41:49.631Z,94664.69
2023-03-26T02:44:16.217Z,94661.06
2023-03-26T02:46:42.837Z,94666.19
2023-03-26T02:49:09.554Z,94655.75
2023-03-26T02:51:36.161Z,94655.69
2023-03-26T02:54:05.443Z,94657.03
2023-03-26T02:56:32.484Z,94644.28
2023-03-26T02:58:59.144Z,94643.44
2023-03-26T03:01:25.800Z,94642.34
2023-03-26T03:03:52.456Z,94628.53
2023-03-26T03:06:19.034Z,94627.38
2023-03-26T03:08:46.752Z,94615.59
2023-03-26T03:11:17.407Z,94600.06
2023-03-26T03:13:45.391Z,94612.03
2023-03-26T03:16:12.155Z,94598.88
2023-03-26T03:18:38.786Z,94611.06
2023-03-26T03:21:06.310Z,94610.72
2023-03-26T03:23:33.399Z,94603.81
2023-03-26T03:26:00.005Z,94593.38
2023-03-26T03:28:26.680Z,94574.81
2023-03-26T03:30:53.440Z,94579.63
2023-03-26T03:33:20.669Z,94572.75
2023-03-26T03:35:50.512Z,94570.44
2023-03-26T03:38:17.849Z,94573.78
2023-03-26T03:40:44.948Z,94579.16
2023-03-26T03:43:11.570Z,94573.44
2023-03-26T03:45:38.148Z,94570.09
2023-03-26T03:48:05.091Z,94569.56
2023-03-26T03:50:33.109Z,94561.63
2023-03-26T03:53:01.788Z,94558.97
2023-03-26T03:55:28.518Z,94549.34
2023-03-26T03:57:55.210Z,94556.34
2023-03-26T04:00:21.949Z,94549.59
2023-03-26T04:02:48.823Z,94547.16
2023-03-26T04:05:15.564Z,94547.06
2023-03-26T04:07:42.241Z,94548.31
2023-03-26T04:10:09.642Z,94538.94
2023-03-26T04:12:36.326Z,94541.69
2023-03-26T04:15:03.829Z,94535.47
2023-03-26T04:17:30.934Z,94540.06
2023-03-26T04:19:57.786Z,94537.53
2023-03-26T04:22:24.400Z,94534.06
2023-03-26T04:24:51.009Z,94534.78
2023-03-26T04:27:25.817Z,94528.84
2023-03-26T04:29:52.535Z,94529.59
2023-03-26T04:32:24.954Z,94516.84
2023-03-26T04:34:52.185Z,94523.47
2023-03-26T04:37:30.638Z,94529.97
2023-03-26T04:39:57.240Z,94532.16
2023-03-26T04:42:23.897Z,94521.28
2023-03-26T04:44:50.488Z,94520.66
2023-03-26T04:47:18.127Z,94515.50
2023-03-26T04:49:45.776Z,94507.19
2023-03-26T04:52:13.549Z,94499.97
2023-03-26T04:54:40.518Z,94510.16
2023-03-26T04:57:18.719Z,94520.72
2023-03-26T04:59:45.388Z,94525.75
2023-03-26T05:02:12.909Z,94521.03
2023-03-26T05:04:40.165Z,94516.22
2023-03-26T05:07:07.070Z,94506.84
2023-03-26T05:09:33.673Z,94516.09
2023-03-26T05:12:00.285Z,94520.56
2023-03-26T05:14:26.943Z,94518.53
2023-03-26T05:19:44.704Z,94519.63
2023-03-26T05:22:11.313Z,94519.31
2023-03-26T05:24:37.947Z,94513.44
2023-03-26T05:27:04.551Z,94501.97
2023-03-26T05:29:31.609Z,94484.00
2023-03-26T05:31:58.213Z,94477.38
2023-03-26T05:34:24.827Z,94458.91
2023-03-26T05:36:51.773Z,94459.50
2023-03-26T05:39:18.451Z,94467.16
2023-03-26T05:41:45.068Z,94462.50
2023-03-26T05:44:11.702Z,94465.94
2023-03-26T05:46:38.303Z,94456.50
2023-03-26T05:49:04.890Z,94442.50
2023-03-26T05:51:31.631Z,94441.94
2023-03-26T05:53:58.248Z,94447.59
2023-03-26T05:56:24.907Z,94449.84
2023-03-26T05:58:51.964Z,94462.81
2023-03-26T06:01:18.754Z,94458.38
2023-03-26T06:03:46.160Z,94461.38
2023-03-26T06:06:16.568Z,94488.25
2023-03-26T06:08:45.400Z,94480.94
2023-03-26T06:11:12.464Z,94473.81
2023-03-26T06:13:40.070Z,94492.91
2023-03-26T06:16:07.575Z,94507.09
2023-03-26T06:18:34.238Z,94500.44
2023-03-26T06:21:02.640Z,94507.31
2023-03-26T06:23:29.309Z,94502.53
2023-03-26T06:25:56.198Z,94516.66
2023-03-26T06:28:23.387Z,94500.56
2023-03-26T06:30:50.907Z,94494.22
2023-03-26T06:33:18.123Z,94470.59
2023-03-26T06:35:45.568Z,94481.59
2023-03-26T06:38:12.566Z,94488.16
2023-03-26T06:40:39.237Z,94480.31
2023-03-26T06:43:10.231Z,94488.91
2023-03-26T06:45:38.021Z,94474.19
2023-03-26T06:48:05.132Z,94476.00
2023-03-26T06:50:31.784Z,94450.94
2023-03-26T06:52:58.611Z,94448.34
2023-03-26T06:55:25.406Z,94445.81
2023-03-26T06:57:54.061Z,94447.09
2023-03-26T07:00:21.898Z,94448.19
2023-03-26T07:02:48.550Z,94449.66
2023-03-26T07:05:15.902Z,94446.75
2023-03-26T07:07:46.223Z,94463.16
2023-03-26T07:10:14.961Z,94459.22
2023-03-26T07:12:41.967Z,94466.72
2023-03-26T07:15:08.820Z,94461.44
2023-03-26T07:17:35.442Z,94454.91
2023-03-26T07:20:02.147Z,94451.13
2023-03-26T07:22:29.091Z,94450.06
2023-03-26T07:24:56.273Z,94442.06
2023-03-26T07:27:51.046Z,94433.75
2023-03-26T07:30:46.506Z,94420.44
2023-03-26T07:33:27.473Z,94422.91
2023-03-26T07:36:06.267Z,94429.94
2023-03-26T07:38:50.747Z,94423.47
2023-03-26T07:41:26.149Z,94422.06
2023-03-26T07:44:16.222Z,94415.38
2023-03-26T07:46:43.862Z,94413.41
2023-03-26T07:49:15.983Z,94436.50
2023-03-26T07:51:44.990Z,94444.69
2023-03-26T07:54:12.025Z,94453.19
2023-03-26T07:56:48.851Z,94476.31
2023-03-26T07:59:30.454Z,94469.28
2023-03-26T08:02:24.800Z,94476.81
2023-03-26T08:05:20.245Z,94469.06
2023-03-26T08:08:33.221Z,94427.13
2023-03-26T08:11:57.324Z,94414.38
2023-03-26T08:15:03.053Z,94407.09
2023-03-26T08:18:10.520Z,94443.19
2023-03-26T08:20:41.712Z,94446.63
2023-03-26T08:23:37.216Z,94450.28
2023-03-26T08:26:43.644Z,94434.09
2023-03-26T08:29:44.045Z,94404.66
2023-03-26T08:32:31.113Z,94441.34
2023-03-26T08:35:17.815Z,94456.66
2023-03-26T08:37:46.653Z,94469.25
2023-03-26T08:40:51.417Z,94459.03
2023-03-26T08:43:42.918Z,94459.44
2023-03-26T08:47:03.216Z,94449.09
2023-03-26T08:49:55.908Z,94456.25
2023-03-26T08:52:52.046Z,94459.19
2023-03-26T08:55:39.961Z,94457.34
2023-03-26T08:58:35.754Z,94442.00
2023-03-26T09:01:23.708Z,94454.59
2023-03-26T09:04:40.464Z,94451.25
2023-03-26T09:07:34.721Z,94442.69
2023-03-26T09:10:20.118Z,94455.69
2023-03-26T09:12:52.840Z,94448.72
2023-03-26T09:15:19.775Z,94439.06
2023-03-26T09:18:11.582Z,94433.97
2023-03-26T09:21:08.159Z,94437.81
2023-03-26T09:23:54.987Z,94432.22
2023-03-26T09:26:26.598Z,94438.94
2023-03-26T09:29:29.374Z,94435.56
2023-03-26T09:32:35.504Z,94421.22
2023-03-26T09:35:13.615Z,94438.41
2023-03-26T09:38:00.845Z,94421.72
2023-03-26T09:40:36.374Z,94425.59
2023-03-26T09:43:26.804Z,94428.50
2023-03-26T09:46:20.502Z,94408.47
2023-03-26T09:49:16.370Z,94399.34
2023-03-26T09:51:50.770Z,94393.28
2023-03-26T09:54:40.431Z,94385.47
2023-03-26T09:57:12.684Z,94398.41
2023-03-26T10:00:00.779Z,94402.44
2023-03-26T10:03:05.118Z,94405.53
2023-03-26T10:05:47.040Z,94400.38
2023-03-26T10:08:22.762Z,94405.03
2023-03-26T10:11:03.310Z,94413.53
2023-03-26T10:13:59.459Z,94416.94
2023-03-26T10:16:39.919Z,94413.53
2023-03-26T10:19:29.484Z,94421.44
2023-03-26T10:22:23.337Z,94416.88
2023-03-26T10:25:22.291Z,94420.56
2023-03-26T10:28:04.331Z,94418.03
2023-03-26T10:30:39.920Z,94415.13
2023-03-26T10:33:27.598Z,94426.31
2023-03-26T10:36:09.409Z,94459.81
2023-03-26T10:38:52.222Z,94451.84
2023-03-26T10:41:36.559Z,94439.91
2023-03-26T10:44:42.458Z,94441.50
2023-03-26T10:47:18.010Z,94436.13
2023-03-26T10:49:53.661Z,94453.63
2023-03-26T10:52:31.415Z,94434.22
2023-03-26T10:55:04.820Z,94444.47
2023-03-26T10:57:43.820Z,94431.75
2023-03-26T11:00:19.804Z,94456.28
2023-03-26T11:03:17.076Z,94436.81
2023-03-26T11:06:18.608Z,94426.34
2023-03-26T11:08:54.217Z,94417.19
2023-03-26T11:11:31.791Z,94411.94
2023-03-26T11:14:34.817Z,94421.56
2023-03-26T11:17:41.564Z,94422.78
2023-03-26T11:20:30.420Z,94421.38
2023-03-26T11:23:09.134Z,94426.66
2023-03-26T11:25:57.484Z,94445.63
2023-03-26T11:32:05.827Z,94426.50
2023-03-26T11:34:36.680Z,94439.03
2023-03-26T11:34:50.668Z,94430.72
2023-03-26T11:37:35.391Z,94444.53
2023-03-26T11:40:10.992Z,94438.78
2023-03-26T11:42:37.918Z,94436.75
2023-03-26T11:45:21.584Z,94435.88
2023-03-26T11:47:58.157Z,94412.19
2023-03-26T11:50:35.219Z,94411.47
2023-03-26T11:53:14.335Z,94402.44
2023-03-26T11:55:50.112Z,94388.19
2023-03-26T11:58:41.436Z,94381.09
2023-03-26T12:01:27.983Z,94351.81
2023-03-26T12:04:05.570Z,94330.44
2023-03-26T12:06:32.276Z,94343.63
2023-03-26T12:08:59.132Z,94316.19
2023-03-26T12:11:32.133Z,94314.72
2023-03-26T12:14:03.669Z,94304.94
2023-03-26T12:16:30.565Z,94303.75
2023-03-26T12:19:03.905Z,94311.97
2023-03-26T12:21:30.609Z,94312.09
2023-03-26T12:24:05.529Z,94323.16
2023-03-26T12:26:42.056Z,94320.44
2023-03-26T12:29:17.616Z,94325.88
2023-03-26T12:32:02.972Z,94327.38
2023-03-26T12:34:36.030Z,94289.31
2023-03-26T12:37:05.740Z,94273.97
2023-03-26T12:40:07.450Z,94275.09
2023-03-26T12:44:51.384Z,94276.06
2023-03-26T12:45:16.768Z,94285.75
2023-03-26T12:47:56.994Z,94298.34
2023-03-26T12:50:38.350Z,94330.66
2023-03-26T12:53:38.636Z,94353.97
2023-03-26T12:56:25.819Z,94361.88
2023-03-26T12:59:11.238Z,94364.97
2023-03-26T13:01:40.654Z,94369.06
2023-03-26T13:04:31.479Z,94392.78
2023-03-26T13:07:13.517Z,94452.31
2023-03-26T13:10:03.332Z,94441.88
2023-03-26T13:13:11.157Z,94411.56
2023-03-26T13:15:56.434Z,94378.28
2023-03-26T13:18:46.216Z,94352.25
2023-03-26T13:21:26.136Z,94341.63
2023-03-26T13:23:59.162Z,94351.44
2023-03-26T13:26:48.900Z,94359.22
2023-03-26T13:29:18.551Z,94370.63
2023-03-26T13:32:01.678Z,94366.66
2023-03-26T13:34:31.169Z,94373.31
2023-03-26T13:37:32.131Z,94361.69
2023-03-26T13:40:21.042Z,94384.41
2023-03-26T13:43:21.487Z,94380.19
2023-03-26T13:45:57.407Z,94379.66
2023-03-26T13:48:36.272Z,94368.13
2023-03-26T13:51:40.603Z,94368.47
2023-03-26T13:54:28.916Z,94366.81
2023-03-26T13:57:11.546Z,94365.41
2023-03-26T13:59:46.933Z,94370.81
2023-03-26T14:02:47.693Z,94370.25
2023-03-26T14:05:42.853Z,94380.09
2023-03-26T14:08:33.307Z,94372.88
2023-03-26T14:11:30.098Z,94365.78
2023-03-26T14:14:26.338Z,94371.28
2023-03-26T14:17:04.682Z,94370.75
2023-03-26T14:20:09.211Z,94382.50
2023-03-26T14:22:57.591Z,94395.19
2023-03-26T14:25:42.669Z,94381.28
2023-03-26T14:28:21.633Z,94394.53
2023-03-26T14:31:00.339Z,94389.25
2023-03-26T14:33:52.115Z,94385.69
2023-03-26T14:36:43.145Z,94393.06
2023-03-26T14:39:41.839Z,94383.94
2023-03-26T14:42:24.427Z,94383.81
2023-03-26T14:45:06.250Z,94389.19
2023-03-26T14:47:46.149Z,94368.88
2023-03-26T14:50:21.968Z,94380.88
2023-03-26T14:53:01.034Z,94389.91
2023-03-26T14:55:28.395Z,94397.13
2023-03-26T14:58:21.623Z,94381.59
2023-03-26T15:01:20.345Z,94384.06
2023-03-26T15:04:22.796Z,94384.81
2023-03-26T15:06:49.437Z,94387.41
2023-03-26T15:09:43.180Z,94383.06
2023-03-26T15:12:13.553Z,94386.41
2023-03-26T15:15:34.149Z,94384.59
2023-03-26T15:18:25.534Z,94389.34
2023-03-26T15:21:29.582Z,94389.84
2023-03-26T15:24:17.812Z,94377.44
2023-03-26T15:27:02.437Z,94375.72
2023-03-26T15:29:44.178Z,94363.63
2023-03-26T15:32:12.554Z,94362.72
2023-03-26T15:35:12.459Z,94372.59
2023-03-26T15:38:08.942Z,94362.16
2023-03-26T15:40:57.075Z,94367.53
2023-03-26T15:43:44.140Z,94364.66
2023-03-26T15:46:11.235Z,94361.34
2023-03-26T15:48:51.453Z,94349.81
2023-03-26T15:51:27.558Z,94349.31
2023-03-26T15:54:28.461Z,94346.41
2023-03-26T15:57:07.495Z,94330.63
2023-03-26T15:59:55.559Z,94337.94
2023-03-26T16:02:39.869Z,94334.06
2023-03-26T16:05:18.431Z,94335.91
2023-03-26T16:08:03.786Z,94345.66
2023-03-26T16:10:51.580Z,94331.91
2023-03-26T16:13:48.952Z,94324.00
2023-03-26T16:16:15.583Z,94318.31
2023-03-26T16:18:48.202Z,94320.06
2023-03-26T16:21:30.478Z,94314.13
2023-03-26T16:24:01.753Z,94319.31
2023-03-26T16:26:31.348Z,94314.63
2023-03-26T16:29:18.426Z,94306.03
2023-03-26T16:32:10.529Z,94299.38
2023-03-26T16:34:37.753Z,94295.44
2023-03-26T16:37:33.659Z,94288.91
2023-03-26T16:40:18.734Z,94287.03
2023-03-26T16:43:01.114Z,94283.06
2023-03-26T16:45:34.604Z,94289.16
2023-03-26T16:48:22.717Z,94267.53
2023-03-26T16:51:13.294Z,94261.31
2023-03-26T16:54:11.702Z,94266.59
2023-03-26T16:57:06.732Z,94263.63
2023-03-26T17:00:05.080Z,94267.59
2023-03-26T17:03:15.425Z,94263.72
2023-03-26T17:05:54.364Z,94265.91
2023-03-26T17:08:48.250Z,94263.47
2023-03-26T17:11:32.881Z,94266.69
2023-03-26T17:14:26.872Z,94256.97
2023-03-26T17:17:02.555Z,94255.56
2023-03-26T17:19:41.382Z,94260.53
2023-03-26T17:22:17.802Z,94264.53
2023-03-26T17:24:53.382Z,94258.94
2023-03-26T17:27:50.944Z,94251.69
2023-03-26T17:30:42.063Z,94238.34
2023-03-26T17:33:20.697Z,94245.94
2023-03-26T17:35:50.130Z,94250.94
2023-03-26T17:38:16.723Z,94235.44
2023-03-26T17:40:43.269Z,94238.19
2023-03-26T17:43:12.310Z,94243.91
2023-03-26T17:45:41.528Z,94234.75
2023-03-26T17:48:20.055Z,94236.63
2023-03-26T17:51:00.203Z,94236.94
2023-03-26T17:53:34.600Z,94234.97
2023-03-26T17:56:07.839Z,94230.81
2023-03-26T17:58:50.126Z,94236.47
2023-03-26T18:01:29.775Z,94225.81
2023-03-26T18:04:06.416Z,94219.78
2023-03-26T18:06:43.245Z,94219.34
2023-03-26T18:09:12.516Z,94220.94
2023-03-26T18:12:29.844Z,94226.47
2023-03-26T18:15:13.597Z,94231.59
2023-03-26T18:17:45.133Z,94218.28
2023-03-26T18:20:29.336Z,94229.34
2023-03-26T18:22:56.079Z,94253.50
2023-03-26T18:25:31.103Z,94274.56
2023-03-26T18:27:59.516Z,94283.00
2023-03-26T18:30:26.187Z,94287.78
2023-03-26T18:33:00.720Z,94281.75
2023-03-26T18:35:40.131Z,94283.13
2023-03-26T18:38:18.591Z,94290.78
2023-03-26T18:41:02.579Z,94286.50
2023-03-26T18:43:34.823Z,94280.63
2023-03-26T18:46:03.842Z,94281.47
2023-03-26T18:48:31.014Z,94282.66
2023-03-26T18:51:04.987Z,94274.38
2023-03-26T18:53:56.734Z,94275.66
2023-03-26T18:56:42.310Z,94275.16
2023-03-26T18:59:28.497Z,94274.13
2023-03-26T19:01:57.655Z,94279.88
2023-03-26T19:04:30.382Z,94274.44
2023-03-26T19:06:57.968Z,94262.91
2023-03-26T19:09:32.152Z,94263.06
2023-03-26T19:12:08.053Z,94257.47
2023-03-26T19:14:51.225Z,94263.00
2023-03-26T19:17:18.561Z,94259.94
2023-03-26T19:19:45.721Z,94246.16
2023-03-26T19:22:12.478Z,94248.19
2023-03-26T19:24:41.352Z,94250.16
2023-03-26T19:27:08.374Z,94243.56
2023-03-26T19:29:36.434Z,94234.41
2023-03-26T19:32:06.478Z,94236.25
2023-03-26T19:34:40.738Z,94233.44
2023-03-26T19:37:18.010Z,94231.63
2023-03-26T19:39:48.468Z,94225.84
2023-03-26T19:42:43.131Z,94231.34
2023-03-26T19:45:22.260Z,94226.28
2023-03-26T19:48:03.528Z,94225.34
2023-03-26T19:50:43.885Z,94230.22
2023-03-26T19:53:16.876Z,94232.47
2023-03-26T19:55:59.235Z,94229.81
2023-03-26T19:58:27.614Z,94234.78
2023-03-26T20:00:54.488Z,94233.88
2023-03-26T20:03:39.141Z,94229.22
2023-03-26T20:06:06.438Z,94229.53
2023-03-26T20:08:33.071Z,94229.72
2023-03-26T20:10:59.896Z,94225.56
2023-03-26T20:13:28.932Z,94221.88
2023-03-26T20:16:08.981Z,94219.75
2023-03-26T20:18:35.709Z,94230.28
2023-03-26T20:21:08.821Z,94248.16
2023-03-26T20:23:35.460Z,94235.84
2023-03-26T20:26:02.096Z,94236.63
2023-03-26T20:28:28.735Z,94240.00
2023-03-26T20:30:56.257Z,94239.47
2023-03-26T20:33:25.723Z,94232.09
2023-03-26T20:35:55.336Z,94239.84
2023-03-26T20:38:36.666Z,94238.09
2023-03-26T20:41:09.486Z,94244.38
2023-03-26T20:43:36.118Z,94244.69
2023-03-26T20:46:02.843Z,94244.22
2023-03-26T20:48:29.528Z,94247.09
2023-03-26T20:50:58.830Z,94251.28
2023-03-26T20:53:25.437Z,94260.91
2023-03-26T20:55:52.140Z,94254.78
2023-03-26T20:58:20.272Z,94258.00
2023-03-26T21:01:00.333Z,94262.41
2023-03-26T21:03:27.112Z,94264.75
2023-03-26T21:05:53.793Z,94273.91
2023-03-26T21:08:20.652Z,94273.84
2023-03-26T21:10:47.529Z,94264.34
2023-03-26T21:13:36.304Z,94270.00
2023-03-26T21:16:03.835Z,94265.72
2023-03-26T21:18:30.913Z,94278.22
2023-03-26T21:21:21.195Z,94286.81
2023-03-26T21:23:57.433Z,94287.81
2023-03-26T21:26:41.482Z,94294.06
2023-03-26T21:29:08.614Z,94302.75
2023-03-26T21:31:35.684Z,94310.50
2023-03-26T21:34:02.710Z,94315.34
2023-03-26T21:36:29.718Z,94315.25
2023-03-26T21:38:56.757Z,94320.41
2023-03-26T21:41:32.925Z,94325.72
2023-03-26T21:43:59.805Z,94323.53
2023-03-26T21:46:26.640Z,94327.00
2023-03-26T21:48:53.524Z,94331.50
2023-03-26T21:51:20.444Z,94331.31
2023-03-26T21:53:47.338Z,94331.94
2023-03-26T21:56:47.747Z,94332.78
2023-03-26T21:59:29.170Z,94337.28
2023-03-26T22:01:55.768Z,94324.44
2023-03-26T22:04:57.497Z,94342.00
2023-03-26T22:07:32.389Z,94338.19
2023-03-26T22:09:59.022Z,94353.97
2023-03-26T22:12:25.727Z,94338.44
2023-03-26T22:14:52.695Z,94351.72
2023-03-26T22:17:19.368Z,94350.50
2023-03-26T22:19:46.067Z,94354.78
2023-03-26T22:22:12.688Z,94367.94
2023-03-26T22:24:39.321Z,94367.03
2023-03-26T22:27:06.181Z,94372.16
2023-03-26T22:29:32.847Z,94373.88
2023-03-26T22:31:59.445Z,94377.56
2023-03-26T22:34:26.051Z,94377.22
2023-03-26T22:36:52.693Z,94389.25
2023-03-26T22:39:19.308Z,94399.50
2023-03-26T22:41:45.956Z,94407.25
2023-03-26T22:44:19.921Z,94422.41
2023-03-26T22:46:47.586Z,94430.22
2023-03-26T22:49:14.442Z,94438.47
2023-03-26T22:51:41.120Z,94429.19
2023-03-26T22:54:07.739Z,94435.84
2023-03-26T22:56:34.389Z,94434.06
2023-03-26T22:59:01.008Z,94441.63
2023-03-26T23:01:27.646Z,94439.78
2023-03-26T23:03:54.765Z,94449.88
2023-03-26T23:06:21.447Z,94437.41
2023-03-26T23:08:48.078Z,94445.31
2023-03-26T23:11:17.386Z,94456.06
2023-03-26T23:13:45.677Z,94452.41
2023-03-26T23:16:14.337Z,94453.09
2023-03-26T23:18:41.963Z,94461.09
2023-03-26T23:21:17.761Z,94465.66
2023-03-26T23:23:44.843Z,94461.25
2023-03-26T23:26:11.717Z,94473.56
2023-03-26T23:28:38.624Z,94476.34
2023-03-26T23:31:08.553Z,94485.63
2023-03-26T23:33:37.870Z,94486.22
2023-03-26T23:36:07.726Z,94500.72
2023-03-26T23:38:43.408Z,94501.06
2023-03-26T23:41:11.571Z,94508.66
2023-03-26T23:43:38.220Z,94516.34
2023-03-26T23:46:22.271Z,94519.66
2023-03-26T23:48:49.942Z,94510.69
2023-03-26T23:51:21.253Z,94522.97
2023-03-26T23:53:51.717Z,94520.13
2023-03-26T23:56:18.360Z,94531.81
2023-03-26T23:58:45.100Z,94524.97
